Time;durP1;ratioP1;P1;durP2;ratioP2;P2;SDS_P1;SDS_P2;PMS_P1;PMS_P2;Temp;Humidity;BMP_temperature;BMP_pressure;BME280_temperature;BME280_humidity;BME280_pressure;Samples;Min_cycle;Max_cycle;Signal;HPM_P1;HPM_P2
2022/07/13 05:00:37;;;;;;;1.50;1.40;;;19.00;97.20;;;;;;1707232;29;20182;-74
2022/07/13 05:01:28;;;;;;;1.70;1.60;;;19.00;97.20;;;;;;1707141;29;20206;-74
2022/07/13 05:02:20;;;;;;;4.30;2.20;;;19.10;97.20;;;;;;1707236;28;20226;-74
2022/07/13 05:03:11;;;;;;;2.35;1.50;;;19.10;97.20;;;;;;1707036;28;20213;-74
2022/07/13 05:04:03;;;;;;;2.07;1.90;;;19.10;97.20;;;;;;1707455;29;20237;-74
2022/07/13 05:04:54;;;;;;;1.50;1.40;;;19.10;97.20;;;;;;1707256;29;20207;-73
2022/07/13 05:05:45;;;;;;;2.00;1.87;;;19.10;97.20;;;;;;1706746;29;20195;-75
2022/07/13 05:06:37;;;;;;;1.80;1.70;;;19.10;97.20;;;;;;1706844;28;20210;-74
2022/07/13 05:07:29;;;;;;;2.03;1.85;;;19.10;97.20;;;;;;1707137;28;20199;-75
2022/07/13 05:08:19;;;;;;;1.83;1.65;;;19.20;97.20;;;;;;1707077;28;20199;-77
2022/07/13 05:09:11;;;;;;;2.37;2.17;;;19.20;97.20;;;;;;1707136;29;20195;-75
2022/07/13 05:10:02;;;;;;;2.13;1.95;;;19.20;97.20;;;;;;1707226;29;20230;-75
2022/07/13 05:10:54;;;;;;;2.07;1.40;;;19.20;97.20;;;;;;1707172;28;20222;-74
2022/07/13 05:11:45;;;;;;;2.38;1.70;;;19.20;97.20;;;;;;1707106;29;20646;-74
2022/07/13 05:12:40;;;;;;;1.47;1.37;;;19.20;97.20;;;;;;1707132;28;20293;-75
2022/07/13 05:13:31;;;;;;;2.25;1.77;;;19.20;97.20;;;;;;1707054;28;20265;-76
2022/07/13 05:14:23;;;;;;;2.40;1.67;;;19.20;97.20;;;;;;1706682;28;20203;-77
2022/07/13 05:15:13;;;;;;;1.80;1.50;;;19.20;97.20;;;;;;1707987;29;20206;-75
2022/07/13 05:16:07;;;;;;;1.57;1.33;;;19.20;97.20;;;;;;1708399;28;20199;-75
2022/07/13 05:16:58;;;;;;;1.60;1.50;;;19.30;97.20;;;;;;1708111;28;20203;-74
2022/07/13 05:17:50;;;;;;;3.90;2.10;;;19.30;97.20;;;;;;1708243;28;20198;-75
2022/07/13 05:18:41;;;;;;;1.70;1.60;;;19.30;97.20;;;;;;1708403;28;20221;-74
2022/07/13 05:19:33;;;;;;;2.20;2.00;;;19.30;97.20;;;;;;1708363;28;20237;-77
2022/07/13 05:20:24;;;;;;;1.95;1.85;;;19.30;97.20;;;;;;1708317;28;20207;-71
2022/07/13 05:21:16;;;;;;;2.50;1.80;;;19.40;97.20;;;;;;1708225;28;20229;-69
2022/07/13 05:22:07;;;;;;;2.55;1.60;;;19.40;97.20;;;;;;1708181;28;20211;-71
2022/07/13 05:22:58;;;;;;;2.20;1.60;;;19.40;97.20;;;;;;1708262;28;20289;-69
2022/07/13 05:23:49;;;;;;;1.90;1.42;;;19.40;97.20;;;;;;1708009;28;21004;-69
2022/07/13 05:24:43;;;;;;;1.80;1.70;;;19.40;97.20;;;;;;1708250;29;20627;-68
2022/07/13 05:25:34;;;;;;;2.13;1.70;;;19.40;97.20;;;;;;1708170;29;20258;-68
2022/07/13 05:26:26;;;;;;;2.30;1.80;;;19.50;97.20;;;;;;1708267;29;20202;-68
2022/07/13 05:27:17;;;;;;;3.00;1.80;;;19.50;97.20;;;;;;1707959;29;20666;-69
2022/07/13 05:28:08;;;;;;;2.03;1.90;;;19.50;97.20;;;;;;1708098;29;20648;-68
2022/07/13 05:29:02;;;;;;;2.75;1.80;;;19.50;97.20;;;;;;1708350;29;20560;-68
2022/07/13 05:29:54;;;;;;;8.32;2.13;;;19.50;97.20;;;;;;1708081;29;20222;-68
2022/07/13 05:30:45;;;;;;;2.95;2.03;;;19.50;97.20;;;;;;1707914;29;20245;-68
2022/07/13 05:31:38;;;;;;;1.83;1.70;;;19.60;97.20;;;;;;1708176;28;20207;-68
2022/07/13 05:32:29;;;;;;;1.65;1.55;;;19.60;97.20;;;;;;1708193;28;20221;-68
2022/07/13 05:33:20;;;;;;;2.63;1.63;;;19.60;97.20;;;;;;1708234;28;20290;-68
2022/07/13 05:34:11;;;;;;;2.00;1.60;;;19.60;97.20;;;;;;1708158;28;20823;-69
2022/07/13 05:35:03;;;;;;;2.27;1.47;;;19.60;97.20;;;;;;1708298;28;20222;-68
2022/07/13 05:35:54;;;;;;;3.17;1.58;;;19.60;97.20;;;;;;1708134;28;20218;-69
2022/07/13 05:36:46;;;;;;;1.70;1.60;;;19.60;97.20;;;;;;1707938;28;20293;-69
2022/07/13 05:37:37;;;;;;;1.48;1.38;;;19.70;97.20;;;;;;1708189;28;20209;-69
2022/07/13 05:38:28;;;;;;;3.30;1.50;;;19.70;97.20;;;;;;1708183;28;20214;-69
2022/07/13 05:39:19;;;;;;;1.90;1.35;;;19.70;97.20;;;;;;1708186;28;20441;-68
2022/07/13 05:40:13;;;;;;;1.60;1.50;;;19.70;97.20;;;;;;1707924;28;20229;-68
2022/07/13 05:41:04;;;;;;;1.50;1.40;;;19.70;97.20;;;;;;1707793;29;20205;-69
2022/07/13 05:41:56;;;;;;;1.60;1.50;;;19.70;97.20;;;;;;1708023;28;20230;-69
2022/07/13 05:42:46;;;;;;;4.25;1.50;;;19.80;97.20;;;;;;1708218;29;20221;-69
2022/07/13 05:43:40;;;;;;;1.73;1.63;;;19.80;97.20;;;;;;1708126;28;20317;-69
2022/07/13 05:44:31;;;;;;;1.70;1.25;;;19.80;97.20;;;;;;1708064;29;20596;-68
2022/07/13 05:45:23;;;;;;;1.40;1.30;;;19.80;97.20;;;;;;1707943;29;20261;-68
2022/07/13 05:46:14;;;;;;;1.92;1.60;;;19.80;97.20;;;;;;1708046;29;20203;-68
2022/07/13 05:47:07;;;;;;;2.57;2.13;;;19.80;97.20;;;;;;1707852;29;20293;-68
2022/07/13 05:47:58;;;;;;;2.17;1.75;;;19.80;97.20;;;;;;1708011;29;20214;-71
2022/07/13 05:48:50;;;;;;;1.70;1.60;;;19.80;97.20;;;;;;1708189;28;20234;-68
2022/07/13 05:49:40;;;;;;;2.70;1.60;;;19.90;97.20;;;;;;1708154;29;20446;-69
2022/07/13 05:50:32;;;;;;;1.80;1.57;;;19.90;97.20;;;;;;1707638;28;20780;-68
2022/07/13 05:51:23;;;;;;;2.58;1.73;;;19.90;97.20;;;;;;1708096;29;20210;-71
2022/07/13 05:52:15;;;;;;;2.40;1.77;;;19.90;97.20;;;;;;1708065;29;20298;-68
2022/07/13 05:53:06;;;;;;;2.75;1.70;;;19.90;97.20;;;;;;1708079;29;20839;-68
2022/07/13 05:53:58;;;;;;;2.97;2.00;;;19.90;97.20;;;;;;1707967;28;20636;-69
2022/07/13 05:54:48;;;;;;;2.63;2.00;;;19.90;97.20;;;;;;1708117;29;20218;-68
2022/07/13 05:55:40;;;;;;;2.43;1.80;;;19.90;97.20;;;;;;1708082;29;20198;-68
2022/07/13 05:56:31;;;;;;;1.83;1.60;;;20.00;97.20;;;;;;1707930;29;20209;-69
2022/07/13 05:57:22;;;;;;;2.23;1.93;;;20.00;97.20;;;;;;1707916;29;20286;-69
2022/07/13 05:58:13;;;;;;;2.85;1.90;;;20.00;97.20;;;;;;1707925;29;20210;-69
2022/07/13 05:59:05;;;;;;;2.27;1.80;;;20.00;97.20;;;;;;1708058;29;20692;-70
2022/07/13 05:59:56;;;;;;;2.15;1.50;;;20.00;97.20;;;;;;1708005;29;20289;-69
2022/07/13 06:00:48;;;;;;;2.20;1.77;;;20.10;97.20;;;;;;1707727;29;20191;-71
2022/07/13 06:01:38;;;;;;;3.33;1.90;;;20.10;97.20;;;;;;1708007;28;20555;-70
2022/07/13 06:02:32;;;;;;;2.07;1.80;;;20.10;97.20;;;;;;1707995;28;20317;-70
2022/07/13 06:03:23;;;;;;;4.40;1.73;;;20.10;97.20;;;;;;1708035;28;20210;-70
2022/07/13 06:04:14;;;;;;;6.70;1.87;;;20.10;97.20;;;;;;1707977;28;20289;-70
2022/07/13 06:05:06;;;;;;;3.08;2.00;;;20.20;97.20;;;;;;1708097;28;20199;-70
2022/07/13 06:05:58;;;;;;;2.80;1.70;;;20.20;97.20;;;;;;1707983;28;20241;-70
2022/07/13 06:06:48;;;;;;;1.70;1.60;;;20.20;97.20;;;;;;1707808;28;20222;-71
2022/07/13 06:07:40;;;;;;;2.03;1.67;;;20.20;97.20;;;;;;1708024;28;20289;-70
2022/07/13 06:08:31;;;;;;;3.05;1.80;;;20.20;97.20;;;;;;1707915;28;20202;-70
2022/07/13 06:09:23;;;;;;;3.00;1.90;;;20.30;97.20;;;;;;1708122;28;20285;-70
2022/07/13 06:10:13;;;;;;;1.83;1.70;;;20.30;97.20;;;;;;1707600;28;20616;-70
2022/07/13 06:11:05;;;;;;;5.27;1.70;;;20.30;97.20;;;;;;1707836;29;20280;-69
2022/07/13 06:11:56;;;;;;;1.75;1.65;;;20.40;97.20;;;;;;1707916;29;20207;-68
2022/07/13 06:12:48;;;;;;;1.80;1.67;;;20.40;97.20;;;;;;1707958;29;20298;-69
2022/07/13 06:13:40;;;;;;;2.75;2.00;;;20.40;97.20;;;;;;1707739;28;20241;-69
2022/07/13 06:14:32;;;;;;;2.20;2.10;;;20.40;97.20;;;;;;1707979;29;20234;-71
2022/07/13 06:15:23;;;;;;;1.70;1.60;;;20.50;97.20;;;;;;1707939;29;20218;-71
2022/07/13 06:16:15;;;;;;;1.90;1.70;;;20.50;97.20;;;;;;1707815;29;20297;-70
2022/07/13 06:17:05;;;;;;;3.50;1.85;;;20.50;97.20;;;;;;1707679;29;20210;-71
2022/07/13 06:17:59;;;;;;;2.20;2.00;;;20.50;97.20;;;;;;1707799;29;20294;-70
2022/07/13 06:18:49;;;;;;;3.38;2.15;;;20.60;97.20;;;;;;1708042;29;20701;-70
2022/07/13 06:19:41;;;;;;;2.03;1.70;;;20.60;97.20;;;;;;1707951;29;20730;-70
2022/07/13 06:20:32;;;;;;;2.05;1.70;;;20.60;97.20;;;;;;1707580;29;20201;-71
2022/07/13 06:21:23;;;;;;;2.10;1.73;;;20.60;97.20;;;;;;1708057;28;20289;-70
2022/07/13 06:22:15;;;;;;;2.50;1.70;;;20.70;97.20;;;;;;1707832;28;20203;-70
2022/07/13 06:23:14;;;;;;;2.97;1.52;;;20.70;97.20;;;;;;1707924;28;20230;-70
2022/07/13 06:24:06;;;;;;;1.90;1.70;;;20.70;97.20;;;;;;1707981;28;20285;-70
2022/07/13 06:24:57;;;;;;;1.63;1.52;;;20.70;97.20;;;;;;1707818;28;20583;-70
2022/07/13 06:25:48;;;;;;;2.30;1.50;;;20.80;97.20;;;;;;1707749;28;20210;-71
2022/07/13 06:26:40;;;;;;;1.63;1.53;;;20.80;97.20;;;;;;1707618;28;20702;-69
2022/07/13 06:27:31;;;;;;;2.10;1.30;;;20.80;97.20;;;;;;1707774;28;20210;-69
2022/07/13 06:28:22;;;;;;;2.33;1.70;;;20.80;97.20;;;;;;1707905;28;20281;-71
2022/07/13 06:29:13;;;;;;;4.60;1.98;;;20.90;97.20;;;;;;1707506;28;20199;-71
2022/07/13 06:30:06;;;;;;;2.93;1.50;;;20.90;97.20;;;;;;1707606;29;20198;-70
2022/07/13 06:30:57;;;;;;;2.25;1.77;;;20.90;97.20;;;;;;1707776;28;20257;-71
2022/07/13 06:31:49;;;;;;;3.53;1.87;;;20.90;97.20;;;;;;1707895;29;20208;-70
2022/07/13 06:32:40;;;;;;;2.00;1.65;;;20.90;97.20;;;;;;1707870;28;20206;-70
2022/07/13 06:33:33;;;;;;;2.70;1.70;;;21.00;97.20;;;;;;1707759;28;20222;-69
2022/07/13 06:34:24;;;;;;;1.83;1.65;;;21.00;97.20;;;;;;1707912;29;20217;-71
2022/07/13 06:35:15;;;;;;;1.60;1.40;;;21.00;97.20;;;;;;1707807;29;20237;-69
2022/07/13 06:36:07;;;;;;;2.85;1.60;;;21.00;97.20;;;;;;1707767;29;20206;-71
2022/07/13 06:36:58;;;;;;;2.70;1.70;;;21.10;97.20;;;;;;1707493;28;20203;-70
2022/07/13 06:37:49;;;;;;;1.90;1.45;;;21.10;97.20;;;;;;1707840;29;20206;-71
2022/07/13 06:38:41;;;;;;;1.50;1.40;;;21.10;97.20;;;;;;1707580;29;20199;-71
2022/07/13 06:39:32;;;;;;;1.60;1.10;;;21.10;97.20;;;;;;1707779;28;20453;-71
2022/07/13 06:40:23;;;;;;;1.40;1.10;;;21.20;97.20;;;;;;1707837;28;20290;-71
2022/07/13 06:41:14;;;;;;;2.03;1.20;;;21.20;97.20;;;;;;1707889;28;20642;-70
2022/07/13 06:42:06;;;;;;;1.73;1.10;;;21.20;97.20;;;;;;1707828;28;20616;-70
2022/07/13 06:42:57;;;;;;;2.05;1.20;;;21.20;97.20;;;;;;1707884;28;20199;-70
2022/07/13 06:43:49;;;;;;;5.20;1.53;;;21.20;97.20;;;;;;1707793;28;20223;-68
2022/07/13 06:44:40;;;;;;;1.38;1.27;;;21.20;97.20;;;;;;1707799;28;20219;-70
2022/07/13 06:45:31;;;;;;;1.27;1.17;;;21.30;97.20;;;;;;1707814;28;20206;-68
2022/07/13 06:46:23;;;;;;;1.70;1.10;;;21.30;97.20;;;;;;1707833;28;20211;-70
2022/07/13 06:47:14;;;;;;;1.65;1.10;;;21.30;97.20;;;;;;1707440;28;20277;-70
2022/07/13 06:48:05;;;;;;;2.35;1.20;;;21.30;97.20;;;;;;1707713;28;20213;-71
2022/07/13 06:48:58;;;;;;;2.47;1.40;;;21.30;97.20;;;;;;1707454;28;20282;-71
2022/07/13 06:49:49;;;;;;;1.40;1.30;;;21.40;97.20;;;;;;1707753;29;20218;-70
2022/07/13 06:50:41;;;;;;;3.30;1.20;;;21.40;97.20;;;;;;1707691;29;20236;-71
2022/07/13 06:51:32;;;;;;;2.08;1.30;;;21.40;97.20;;;;;;1707713;29;20210;-70
2022/07/13 06:52:24;;;;;;;1.85;1.10;;;21.40;97.20;;;;;;1707854;29;20289;-69
2022/07/13 06:53:15;;;;;;;4.50;1.40;;;21.40;97.20;;;;;;1707594;28;20229;-69
2022/07/13 06:54:07;;;;;;;3.13;1.30;;;21.50;97.20;;;;;;1707677;29;20293;-69
2022/07/13 06:54:57;;;;;;;2.17;1.50;;;21.50;97.20;;;;;;1707597;29;20220;-69
2022/07/13 06:55:49;;;;;;;2.47;1.30;;;21.50;97.20;;;;;;1707615;29;20290;-69
2022/07/13 06:56:40;;;;;;;1.40;1.20;;;21.60;97.20;;;;;;1707405;29;20242;-69
2022/07/13 06:57:31;;;;;;;2.00;1.80;;;21.60;97.20;;;;;;1707664;29;20206;-69
2022/07/13 06:58:22;;;;;;;1.48;1.38;;;21.60;97.20;;;;;;1707630;29;20547;-69
2022/07/13 06:59:14;;;;;;;1.83;1.40;;;21.60;97.20;;;;;;1707390;29;20307;-69
2022/07/13 07:00:06;;;;;;;1.50;1.40;;;21.70;97.20;;;;;;1707709;28;20213;-69
2022/07/13 07:00:58;;;;;;;1.70;1.55;;;21.70;97.20;;;;;;1707689;28;20205;-69
2022/07/13 07:01:50;;;;;;;1.23;1.13;;;21.70;97.20;;;;;;1707651;28;20299;-69
2022/07/13 07:02:42;;;;;;;2.25;1.42;;;21.70;97.20;;;;;;1707633;28;20195;-69
2022/07/13 07:03:32;;;;;;;1.80;1.50;;;21.70;97.20;;;;;;1707600;28;20618;-70
2022/07/13 07:04:25;;;;;;;4.03;1.20;;;21.80;97.20;;;;;;1707760;28;20713;-69
2022/07/13 07:05:16;;;;;;;1.77;1.30;;;21.80;97.20;;;;;;1707545;28;20199;-69
2022/07/13 07:06:08;;;;;;;3.00;1.20;;;21.80;97.20;;;;;;1707599;28;20204;-70
2022/07/13 07:06:59;;;;;;;1.73;1.20;;;21.80;97.20;;;;;;1707032;28;20289;-70
2022/07/13 07:07:51;;;;;;;2.63;1.20;;;21.80;97.20;;;;;;1707465;29;20213;-69
2022/07/13 07:08:42;;;;;;;4.45;1.20;;;21.90;97.20;;;;;;1707650;28;20207;-69
2022/07/13 07:09:34;;;;;;;2.50;1.33;;;21.90;97.20;;;;;;1707546;29;20297;-70
2022/07/13 07:10:24;;;;;;;2.00;1.30;;;21.90;97.20;;;;;;1707670;29;20720;-69
2022/07/13 07:11:16;;;;;;;4.00;1.10;;;22.00;97.20;;;;;;1707401;29;20788;-69
2022/07/13 07:12:07;;;;;;;1.40;1.30;;;22.00;97.20;;;;;;1707542;29;20202;-69
2022/07/13 07:12:59;;;;;;;1.30;1.20;;;22.00;97.20;;;;;;1707606;28;20289;-69
2022/07/13 07:13:50;;;;;;;1.15;1.05;;;22.00;97.20;;;;;;1707394;28;20489;-69
2022/07/13 07:14:42;;;;;;;1.38;1.27;;;22.10;97.20;;;;;;1707664;29;20237;-69
2022/07/13 07:15:32;;;;;;;1.30;1.10;;;22.10;97.20;;;;;;1707549;29;20235;-69
2022/07/13 07:16:24;;;;;;;2.97;1.20;;;22.10;97.20;;;;;;1707625;29;20194;-69
2022/07/13 07:17:16;;;;;;;1.10;1.00;;;22.20;97.20;;;;;;1707077;29;20217;-70
2022/07/13 07:18:07;;;;;;;1.27;1.00;;;22.20;97.20;;;;;;1707495;28;20618;-70
2022/07/13 07:18:58;;;;;;;1.40;1.10;;;22.20;97.20;;;;;;1707523;28;20670;-70
2022/07/13 07:19:52;;;;;;;1.40;1.30;;;22.30;97.20;;;;;;1707527;28;20667;-70
2022/07/13 07:20:43;;;;;;;1.45;1.35;;;22.30;97.20;;;;;;1707560;28;20577;-69
2022/07/13 07:21:35;;;;;;;4.30;1.10;;;22.30;97.20;;;;;;1707521;28;20592;-70
2022/07/13 07:22:26;;;;;;;2.33;1.48;;;22.30;97.20;;;;;;1707622;28;20214;-70
2022/07/13 07:23:18;;;;;;;1.95;1.02;;;22.40;97.20;;;;;;1707428;28;20211;-70
2022/07/13 07:24:09;;;;;;;1.00;0.88;;;22.40;97.20;;;;;;1707509;28;20658;-70
2022/07/13 07:25:00;;;;;;;3.43;1.23;;;22.50;97.20;;;;;;1707515;28;20634;-69
2022/07/13 07:25:51;;;;;;;2.78;1.17;;;22.50;97.20;;;;;;1707476;28;20213;-70
2022/07/13 07:26:43;;;;;;;1.10;1.00;;;22.50;97.20;;;;;;1707225;28;20289;-70
2022/07/13 07:27:34;;;;;;;1.40;1.30;;;22.60;97.20;;;;;;1707167;28;20457;-70
2022/07/13 07:28:26;;;;;;;2.20;1.20;;;22.60;97.20;;;;;;1707435;29;20289;-70
2022/07/13 07:29:17;;;;;;;1.10;1.00;;;22.70;97.20;;;;;;1707416;29;20442;-69
2022/07/13 07:30:09;;;;;;;1.85;0.98;;;22.70;97.20;;;;;;1707454;29;20199;-69
2022/07/13 07:31:00;;;;;;;3.10;1.00;;;22.80;97.20;;;;;;1707403;29;20230;-70
2022/07/13 07:31:52;;;;;;;1.73;1.07;;;22.80;97.20;;;;;;1707435;29;20285;-70
2022/07/13 07:32:43;;;;;;;1.58;1.10;;;22.80;97.20;;;;;;1707512;29;20446;-70
2022/07/13 07:33:34;;;;;;;6.03;1.23;;;22.90;97.20;;;;;;1707482;28;20250;-70
2022/07/13 07:34:25;;;;;;;1.40;1.30;;;22.90;97.20;;;;;;1707505;29;20225;-70
2022/07/13 07:35:18;;;;;;;2.33;1.10;;;23.00;97.20;;;;;;1707434;29;20198;-69
2022/07/13 07:36:09;;;;;;;1.30;1.20;;;23.00;97.20;;;;;;1707337;29;20209;-70
2022/07/13 07:37:02;;;;;;;2.13;1.10;;;23.10;97.20;;;;;;1706458;28;20237;-70
2022/07/13 07:37:52;;;;;;;1.20;1.00;;;23.10;97.20;;;;;;1707348;28;20210;-70
2022/07/13 07:38:44;;;;;;;1.40;1.20;;;23.20;97.20;;;;;;1707541;28;20245;-70
2022/07/13 07:39:35;;;;;;;1.65;1.17;;;23.20;97.20;;;;;;1707449;28;20727;-70
2022/07/13 07:40:28;;;;;;;1.00;0.90;;;23.30;97.20;;;;;;1707464;28;20206;-69
2022/07/13 07:41:18;;;;;;;1.15;1.05;;;23.30;97.20;;;;;;1707471;29;20576;-70
2022/07/13 07:42:10;;;;;;;1.73;1.07;;;23.40;97.20;;;;;;1707424;28;20285;-70
2022/07/13 07:43:02;;;;;;;1.45;0.90;;;23.50;97.20;;;;;;1707544;28;20573;-69
2022/07/13 07:43:53;;;;;;;2.28;1.00;;;23.50;97.20;;;;;;1707290;28;20361;-70
2022/07/13 07:44:44;;;;;;;1.73;1.07;;;23.50;97.20;;;;;;1707487;28;20261;-70
2022/07/13 07:45:35;;;;;;;3.10;1.60;;;23.50;97.20;;;;;;1707386;28;20225;-70
2022/07/13 07:46:27;;;;;;;2.00;1.00;;;23.60;97.20;;;;;;1707416;28;20225;-70
2022/07/13 07:47:22;;;;;;;0.98;0.90;;;23.60;97.20;;;;;;1706889;28;20720;-70
2022/07/13 07:48:13;;;;;;;2.35;1.00;;;23.70;97.20;;;;;;1707270;29;20274;-70
2022/07/13 07:49:04;;;;;;;3.30;1.10;;;23.70;97.20;;;;;;1707381;29;20202;-69
2022/07/13 07:49:55;;;;;;;1.83;1.08;;;23.80;97.20;;;;;;1707371;29;20206;-70
2022/07/13 07:50:48;;;;;;;1.30;0.83;;;23.80;97.20;;;;;;1707412;29;20717;-70
2022/07/13 07:51:39;;;;;;;1.05;0.95;;;23.80;97.20;;;;;;1707344;29;20701;-70
2022/07/13 07:52:31;;;;;;;1.10;0.90;;;23.90;97.20;;;;;;1707433;29;20623;-69
2022/07/13 07:53:21;;;;;;;1.00;0.80;;;23.90;97.20;;;;;;1707342;28;20206;-70
2022/07/13 07:54:13;;;;;;;1.30;1.20;;;23.90;97.20;;;;;;1707296;29;20725;-70
2022/07/13 07:55:05;;;;;;;1.48;1.00;;;23.90;97.20;;;;;;1707397;29;20217;-70
2022/07/13 07:55:57;;;;;;;1.00;0.90;;;24.00;97.20;;;;;;1707285;29;20639;-70
2022/07/13 07:56:48;;;;;;;1.13;1.02;;;24.00;97.20;;;;;;1707090;29;20206;-70
2022/07/13 07:57:47;;;;;;;2.83;1.07;;;24.00;97.20;;;;;;1707093;29;20205;-69
2022/07/13 07:58:38;;;;;;;1.50;0.90;;;24.00;97.20;;;;;;1707412;28;20454;-70
2022/07/13 07:59:30;;;;;;;1.70;0.90;;;24.00;97.20;;;;;;1707336;28;20202;-69
2022/07/13 08:00:21;;;;;;;1.25;1.00;;;24.00;97.20;;;;;;1707320;28;20273;-69
2022/07/13 08:01:13;;;;;;;1.80;0.95;;;24.00;97.20;;;;;;1707035;28;20206;-70
2022/07/13 08:02:04;;;;;;;8.38;1.40;;;24.00;97.20;;;;;;1707202;29;20230;-69
2022/07/13 08:02:57;;;;;;;1.07;0.97;;;24.00;97.20;;;;;;1707340;29;20225;-70
2022/07/13 08:03:48;;;;;;;2.92;1.70;;;24.00;97.20;;;;;;1707280;28;20474;-70
2022/07/13 08:04:40;;;;;;;1.40;1.17;;;24.10;97.20;;;;;;1707352;29;20206;-70
2022/07/13 08:05:32;;;;;;;1.10;1.00;;;24.10;97.20;;;;;;1707350;29;20214;-70
2022/07/13 08:06:24;;;;;;;1.67;1.08;;;24.10;97.20;;;;;;1707339;29;20214;-70
2022/07/13 08:07:16;;;;;;;1.17;1.08;;;24.20;97.20;;;;;;1706705;29;20207;-70
2022/07/13 08:08:06;;;;;;;1.08;0.98;;;24.20;97.20;;;;;;1707284;28;20211;-70
2022/07/13 08:08:58;;;;;;;2.37;1.00;;;24.30;97.20;;;;;;1707341;28;20739;-69
2022/07/13 08:09:49;;;;;;;2.35;1.30;;;24.30;97.20;;;;;;1707340;28;20217;-70
2022/07/13 08:10:41;;;;;;;2.63;1.20;;;24.30;97.20;;;;;;1707344;28;20234;-70
2022/07/13 08:11:32;;;;;;;1.63;1.20;;;24.40;97.20;;;;;;1707475;28;20697;-70
2022/07/13 08:12:23;;;;;;;2.33;0.90;;;24.40;97.20;;;;;;1707405;28;20750;-70
2022/07/13 08:13:14;;;;;;;1.17;0.90;;;24.40;97.20;;;;;;1707091;28;20446;-70
2022/07/13 08:14:06;;;;;;;1.07;0.90;;;24.40;97.20;;;;;;1707300;28;20205;-70
2022/07/13 08:14:57;;;;;;;1.20;1.05;;;24.50;97.20;;;;;;1707302;28;20210;-70
2022/07/13 08:15:49;;;;;;;1.60;1.10;;;24.50;97.20;;;;;;1707282;28;20289;-70
2022/07/13 08:16:40;;;;;;;2.45;1.00;;;24.50;97.20;;;;;;1707072;28;20229;-70
2022/07/13 08:17:31;;;;;;;3.05;0.80;;;24.50;97.20;;;;;;1707043;28;20194;-70
2022/07/13 08:18:22;;;;;;;1.90;1.02;;;24.50;97.20;;;;;;1707173;29;20209;-70
2022/07/13 08:19:14;;;;;;;1.40;0.80;;;24.50;97.20;;;;;;1707229;29;20198;-69
2022/07/13 08:20:06;;;;;;;1.75;1.08;;;24.50;97.20;;;;;;1707361;28;20211;-70
2022/07/13 08:20:58;;;;;;;1.10;0.90;;;24.50;97.20;;;;;;1707221;29;20257;-70
2022/07/13 08:21:50;;;;;;;1.20;1.10;;;24.60;97.20;;;;;;1707239;29;20199;-69
2022/07/13 08:22:42;;;;;;;1.20;1.00;;;24.60;97.20;;;;;;1707205;29;20206;-70
2022/07/13 08:24:42;;;;;;;2.13;1.00;;;24.60;97.20;;;;;;1707332;29;20586;-69
2022/07/13 08:25:34;;;;;;;3.40;1.67;;;24.60;97.20;;;;;;1707252;29;20612;-68
2022/07/13 08:26:27;;;;;;;1.45;1.00;;;24.60;97.20;;;;;;1707242;29;20206;-69
2022/07/13 08:27:19;;;;;;;1.23;1.10;;;24.60;97.20;;;;;;1706737;29;20281;-68
2022/07/13 08:28:10;;;;;;;1.88;1.15;;;24.60;97.20;;;;;;1707152;28;20214;-69
2022/07/13 08:29:02;;;;;;;1.10;1.00;;;24.60;97.20;;;;;;1707342;28;20281;-69
2022/07/13 08:29:52;;;;;;;1.20;1.10;;;24.60;97.20;;;;;;1707180;28;20318;-69
2022/07/13 08:30:44;;;;;;;2.17;1.00;;;24.60;97.20;;;;;;1707363;28;20310;-69
2022/07/13 08:31:35;;;;;;;1.30;1.20;;;24.60;97.20;;;;;;1707171;28;20701;-69
2022/07/13 08:32:27;;;;;;;2.67;1.20;;;24.60;97.20;;;;;;1707262;28;20211;-69
2022/07/13 08:33:18;;;;;;;3.72;0.90;;;24.70;97.20;;;;;;1707103;28;20198;-69
2022/07/13 08:38:48;;;;;;;2.08;1.00;;;24.80;97.20;;;;;;1700724;29;20259;-69
2022/07/13 08:39:39;;;;;;;1.42;1.17;;;24.80;97.20;;;;;;1700722;29;20207;-69
2022/07/13 08:40:31;;;;;;;1.13;1.03;;;24.80;97.20;;;;;;1700658;29;20294;-69
2022/07/13 08:41:23;;;;;;;1.60;0.90;;;24.80;97.20;;;;;;1700706;29;20203;-69
2022/07/13 08:42:15;;;;;;;1.77;1.10;;;24.80;97.20;;;;;;1700678;29;20295;-69
2022/07/13 08:43:06;;;;;;;2.85;1.35;;;24.80;97.20;;;;;;1700692;29;20211;-69
2022/07/13 08:43:57;;;;;;;1.23;1.00;;;24.80;97.20;;;;;;1700547;29;20302;-69
2022/07/13 08:44:49;;;;;;;1.88;1.13;;;24.80;97.20;;;;;;1700714;29;20675;-69
2022/07/13 08:45:41;;;;;;;4.00;1.10;;;24.80;97.20;;;;;;1702180;29;20369;-69
2022/07/13 08:46:32;;;;;;;1.08;0.90;;;24.90;97.20;;;;;;1706660;28;20581;-69
2022/07/13 08:47:29;;;;;;;1.30;1.17;;;24.90;97.20;;;;;;1707196;29;20234;-69
2022/07/13 08:48:26;;;;;;;1.10;1.00;;;24.90;97.20;;;;;;1707178;28;20225;-69
2022/07/13 08:49:18;;;;;;;1.50;1.00;;;24.90;97.20;;;;;;1707628;28;20206;-69
2022/07/13 08:50:09;;;;;;;1.92;1.05;;;24.90;97.20;;;;;;1708493;29;20327;-68
2022/07/13 08:51:01;;;;;;;1.10;1.00;;;24.90;97.20;;;;;;1708505;28;20218;-69
2022/07/13 08:51:54;;;;;;;7.82;1.40;;;24.90;97.20;;;;;;1708437;29;20230;-69
2022/07/13 08:52:47;;;;;;;1.90;1.10;;;24.90;97.20;;;;;;1708420;29;20206;-69
2022/07/13 08:53:38;;;;;;;1.20;1.08;;;25.00;97.20;;;;;;1708379;28;20226;-69
2022/07/13 08:54:29;;;;;;;1.38;1.05;;;25.00;97.20;;;;;;1708422;29;20210;-69
2022/07/13 08:55:22;;;;;;;4.93;1.10;;;25.00;97.20;;;;;;1708502;28;20297;-68
2022/07/13 08:56:13;;;;;;;1.85;1.00;;;25.00;97.20;;;;;;1708041;28;20829;-69
2022/07/13 08:57:05;;;;;;;1.27;1.17;;;25.10;97.20;;;;;;1708197;28;20218;-69
2022/07/13 08:57:55;;;;;;;1.95;1.00;;;25.10;97.20;;;;;;1708389;28;20222;-69
2022/07/13 08:58:47;;;;;;;1.37;1.00;;;25.10;97.20;;;;;;1708444;28;20399;-69
2022/07/13 08:59:38;;;;;;;1.20;1.10;;;25.20;97.20;;;;;;1708423;28;20207;-69
2022/07/13 09:00:30;;;;;;;2.17;1.10;;;25.20;97.20;;;;;;1708456;28;20289;-69
2022/07/13 09:01:21;;;;;;;1.20;1.00;;;25.30;97.20;;;;;;1708525;28;20299;-69
2022/07/13 09:02:13;;;;;;;1.42;1.13;;;25.30;97.20;;;;;;1708329;28;20202;-69
2022/07/13 09:03:03;;;;;;;1.00;0.88;;;25.30;97.20;;;;;;1708473;28;20213;-69
2022/07/13 09:03:56;;;;;;;1.10;1.00;;;25.40;97.20;;;;;;1708270;28;20297;-69
2022/07/13 09:04:47;;;;;;;2.20;1.27;;;25.40;97.20;;;;;;1708378;28;20566;-69
2022/07/13 09:05:39;;;;;;;2.65;1.33;;;25.40;97.20;;;;;;1708100;28;20209;-69
2022/07/13 09:06:44;;;;;;;1.52;1.00;;;25.50;97.20;;;;;;1708309;29;20213;-69
2022/07/13 09:07:37;;;;;;;1.00;0.88;;;25.50;97.20;;;;;;1708322;29;20261;-69
2022/07/13 09:08:29;;;;;;;2.70;0.90;;;25.50;97.20;;;;;;1708357;28;20206;-69
2022/07/13 09:09:31;;;;;;;1.42;1.00;;;25.50;97.20;;;;;;1708409;28;20450;-69
2022/07/13 09:10:23;;;;;;;1.10;1.00;;;25.60;97.20;;;;;;1708383;29;20206;-69
2022/07/13 09:11:15;;;;;;;1.10;1.00;;;25.60;97.20;;;;;;1708342;29;20202;-69
2022/07/13 09:12:15;;;;;;;1.23;0.90;;;25.60;97.20;;;;;;1708319;29;20226;-69
2022/07/13 09:13:07;;;;;;;1.02;0.93;;;25.60;97.20;;;;;;1708352;29;20631;-69
2022/07/13 09:13:58;;;;;;;1.30;0.90;;;25.60;97.20;;;;;;1708165;28;20237;-69
2022/07/13 09:14:54;;;;;;;1.57;1.13;;;25.70;97.20;;;;;;1708305;29;20269;-69
2022/07/13 09:15:44;;;;;;;1.80;1.23;;;25.70;97.20;;;;;;1708106;29;20705;-69
2022/07/13 09:16:39;;;;;;;1.10;1.00;;;25.70;97.20;;;;;;1708014;28;20604;-69
2022/07/13 09:17:34;;;;;;;1.35;1.15;;;25.70;97.20;;;;;;1708277;28;20218;-69
2022/07/13 09:18:25;;;;;;;1.52;1.27;;;25.80;97.20;;;;;;1708049;28;20203;-69
2022/07/13 09:19:16;;;;;;;1.10;1.00;;;25.80;97.20;;;;;;1708351;28;20572;-69
2022/07/13 09:20:20;;;;;;;1.07;0.97;;;25.80;97.20;;;;;;1708333;28;20290;-69
2022/07/13 09:21:11;;;;;;;0.80;0.80;;;25.80;97.20;;;;;;1708264;28;20209;-69
2022/07/13 09:22:11;;;;;;;2.33;1.07;;;25.90;97.20;;;;;;1707783;29;20230;-69
2022/07/13 09:23:02;;;;;;;1.15;1.02;;;25.90;97.20;;;;;;1707837;29;20210;-69
2022/07/13 09:23:57;;;;;;;7.43;1.55;;;25.90;97.20;;;;;;1708065;29;20225;-69
2022/07/13 09:24:50;;;;;;;1.20;1.08;;;26.00;97.20;;;;;;1708354;28;20214;-69
2022/07/13 09:25:42;;;;;;;1.52;1.10;;;26.00;97.20;;;;;;1708168;29;20290;-69
2022/07/13 09:26:40;;;;;;;1.60;0.90;;;26.00;97.20;;;;;;1707946;28;20202;-69
2022/07/13 09:27:47;;;;;;;1.20;1.10;;;26.10;97.20;;;;;;1708272;29;20287;-69
2022/07/13 09:28:42;;;;;;;1.33;1.23;;;26.10;97.20;;;;;;1708264;29;20396;-69
2022/07/13 09:29:36;;;;;;;1.40;1.08;;;26.20;97.20;;;;;;1708174;29;20211;-69
2022/07/13 09:30:28;;;;;;;1.08;0.98;;;26.20;97.20;;;;;;1708230;29;20210;-69
2022/07/13 09:31:20;;;;;;;1.10;0.90;;;26.20;97.20;;;;;;1708246;29;20206;-69
2022/07/13 09:32:12;;;;;;;1.10;1.00;;;26.30;97.20;;;;;;1708074;29;20223;-69
2022/07/13 09:33:04;;;;;;;1.73;1.10;;;26.30;97.20;;;;;;1708239;29;20226;-69
2022/07/13 09:33:55;;;;;;;1.00;0.80;;;26.30;97.20;;;;;;1708078;28;20477;-69
2022/07/13 09:34:52;;;;;;;1.47;1.10;;;26.40;97.20;;;;;;1708244;29;20537;-69
2022/07/13 09:35:45;;;;;;;1.27;1.17;;;26.40;97.20;;;;;;1708149;29;20454;-69
2022/07/13 09:36:37;;;;;;;1.15;1.00;;;26.40;97.20;;;;;;1707616;29;20481;-69